createdAt,value
2019-02-02T00:01:09.439Z,582.38
2019-02-02T00:03:39.205Z,561.58
2019-02-02T00:06:09.883Z,562.25
2019-02-02T00:08:39.696Z,566.10
2019-02-02T00:11:09.620Z,562.62
2019-02-02T00:13:39.370Z,561.17
2019-02-02T00:16:09.122Z,561.17
2019-02-02T00:18:39.204Z,562.08
2019-02-02T00:21:09.010Z,559.80
2019-02-02T00:23:38.777Z,568.13
2019-02-02T00:26:09.477Z,577.17
2019-02-02T00:28:39.239Z,576.42
2019-02-02T00:31:09.244Z,569.17
2019-02-02T00:33:38.934Z,563.40
2019-02-02T00:36:09.568Z,567.60
2019-02-02T00:38:39.337Z,571.63
2019-02-02T00:41:08.989Z,565.05
2019-02-02T00:43:38.770Z,564.17
2019-02-02T00:46:08.663Z,563.00
2019-02-02T00:48:38.375Z,572.73
2019-02-02T00:51:10.180Z,576.82
2019-02-02T00:53:39.936Z,575.67
2019-02-02T00:56:09.690Z,577.80
2019-02-02T00:58:39.447Z,579.08
2019-02-02T01:01:09.259Z,585.80
2019-02-02T01:03:39.904Z,576.03
2019-02-02T01:06:09.704Z,582.62
2019-02-02T01:08:39.601Z,583.93
2019-02-02T01:11:09.524Z,595.45
2019-02-02T01:13:39.253Z,585.50
2019-02-02T01:16:09.006Z,576.60
2019-02-02T01:18:38.735Z,577.65
2019-02-02T01:21:08.489Z,585.73
2019-02-02T01:23:38.234Z,584.63
2019-02-02T01:26:08.131Z,586.73
2019-02-02T01:28:37.906Z,589.75
2019-02-02T01:31:07.570Z,601.82
2019-02-02T01:33:37.416Z,585.05
2019-02-02T01:36:07.152Z,589.63
2019-02-02T01:38:36.819Z,592.05
2019-02-02T01:41:07.447Z,604.60
2019-02-02T01:43:37.305Z,592.30
2019-02-02T01:46:07.048Z,593.60
2019-02-02T01:48:36.817Z,601.05
2019-02-02T01:51:06.587Z,601.82
2019-02-02T01:53:36.356Z,597.30
2019-02-02T01:56:06.204Z,604.77
2019-02-02T01:58:36.881Z,605.37
2019-02-02T02:01:06.874Z,604.83
2019-02-02T02:03:36.581Z,609.63
2019-02-02T02:06:06.383Z,614.67
2019-02-02T02:08:36.189Z,623.77
2019-02-02T02:11:06.040Z,622.00
2019-02-02T02:13:35.726Z,614.70
2019-02-02T02:16:05.464Z,616.92
2019-02-02T02:18:35.208Z,620.62
2019-02-02T02:21:04.876Z,620.33
2019-02-02T02:23:34.568Z,624.92
2019-02-02T02:26:04.298Z,619.70
2019-02-02T02:28:33.967Z,611.83
2019-02-02T02:31:03.636Z,613.20
2019-02-02T02:33:33.462Z,614.60
2019-02-02T02:36:03.184Z,607.50
2019-02-02T02:38:32.874Z,611.40
2019-02-02T02:41:02.527Z,608.83
2019-02-02T02:43:32.341Z,600.08
2019-02-02T02:46:02.000Z,613.77
2019-02-02T02:48:31.675Z,607.60
2019-02-02T02:51:01.341Z,605.35
2019-02-02T02:53:31.020Z,598.40
2019-02-02T02:56:00.617Z,604.77
2019-02-02T02:58:41.046Z,589.13
2019-02-02T03:01:01.925Z,598.42
2019-02-02T03:03:31.550Z,596.00
2019-02-02T03:06:01.364Z,588.50
2019-02-02T03:08:31.180Z,589.63
2019-02-02T03:11:00.871Z,591.48
2019-02-02T03:13:30.658Z,590.08
2019-02-02T03:16:00.400Z,581.40
2019-02-02T03:18:30.295Z,588.80
2019-02-02T03:21:00.843Z,590.08
2019-02-02T03:23:30.559Z,599.35
2019-02-02T03:26:00.174Z,591.27
2019-02-02T03:28:30.078Z,593.87
2019-02-02T03:30:59.845Z,584.27
2019-02-02T03:33:29.519Z,592.08
2019-02-02T03:35:59.346Z,586.90
2019-02-02T03:38:29.178Z,591.70
2019-02-02T03:40:58.998Z,590.67
2019-02-02T03:43:28.922Z,587.25
2019-02-02T03:45:58.671Z,584.50
2019-02-02T03:48:28.554Z,583.12
2019-02-02T03:50:58.218Z,586.70
2019-02-02T03:53:28.937Z,592.00
2019-02-02T03:55:58.686Z,580.13
2019-02-02T03:58:28.422Z,587.52
2019-02-02T04:00:58.147Z,583.05
2019-02-02T04:03:27.930Z,581.37
2019-02-02T04:05:57.658Z,579.92
2019-02-02T04:08:27.469Z,583.92
2019-02-02T04:10:57.146Z,581.42
2019-02-02T04:13:27.020Z,586.55
2019-02-02T04:15:56.826Z,586.08
2019-02-02T04:18:26.415Z,590.02
2019-02-02T04:20:56.208Z,585.92
2019-02-02T04:23:26.025Z,585.35
2019-02-02T04:25:57.369Z,584.05
2019-02-02T04:28:27.289Z,595.05
2019-02-02T04:30:57.212Z,592.95
2019-02-02T04:33:27.002Z,590.00
2019-02-02T04:35:56.588Z,594.23
2019-02-02T04:38:26.274Z,584.80
2019-02-02T04:40:56.008Z,587.23
2019-02-02T04:43:25.697Z,593.07
2019-02-02T04:45:55.575Z,589.37
2019-02-02T04:48:25.475Z,590.47
2019-02-02T04:50:55.141Z,588.95
2019-02-02T04:53:24.988Z,593.10
2019-02-02T04:55:54.650Z,591.38
2019-02-02T04:58:25.346Z,598.05
2019-02-02T05:00:55.066Z,591.20
2019-02-02T05:03:24.877Z,586.92
2019-02-02T05:05:54.537Z,584.58
2019-02-02T05:08:24.285Z,589.00
2019-02-02T05:10:53.910Z,589.42
2019-02-02T05:13:23.602Z,589.02
2019-02-02T05:15:53.294Z,588.52
2019-02-02T05:18:23.138Z,593.50
2019-02-02T05:20:52.887Z,594.28
2019-02-02T05:23:22.621Z,579.38
2019-02-02T05:25:52.304Z,589.90
2019-02-02T05:28:21.967Z,590.75
2019-02-02T05:30:51.588Z,591.97
2019-02-02T05:33:21.451Z,596.72
2019-02-02T05:35:51.204Z,605.80
2019-02-02T05:38:20.914Z,604.33
2019-02-02T05:40:50.672Z,592.72
2019-02-02T05:43:20.269Z,593.97
2019-02-02T05:45:49.979Z,592.70
2019-02-02T05:48:19.636Z,595.90
2019-02-02T05:50:49.320Z,597.63
2019-02-02T05:53:19.149Z,593.43
2019-02-02T05:55:49.759Z,584.20
2019-02-02T05:58:19.520Z,584.43
2019-02-02T06:00:50.853Z,597.37
2019-02-02T06:03:20.765Z,619.23
2019-02-02T06:05:50.503Z,625.45
2019-02-02T06:08:20.255Z,633.50
2019-02-02T06:10:49.985Z,637.42
2019-02-02T06:13:19.672Z,644.92
2019-02-02T06:15:50.346Z,657.62
2019-02-02T06:18:20.187Z,656.83
2019-02-02T06:20:49.969Z,658.55
2019-02-02T06:23:19.592Z,657.50
2019-02-02T06:25:49.278Z,664.78
2019-02-02T06:28:19.013Z,654.87
2019-02-02T06:30:48.769Z,641.48
2019-02-02T06:33:18.424Z,648.20
2019-02-02T06:35:48.110Z,641.83
2019-02-02T06:38:17.846Z,639.85
2019-02-02T06:40:47.466Z,650.02
2019-02-02T06:43:17.168Z,642.90
2019-02-02T06:45:46.841Z,644.63
2019-02-02T06:48:16.599Z,639.23
2019-02-02T06:50:46.367Z,640.50
2019-02-02T06:53:16.036Z,644.47
2019-02-02T06:55:45.731Z,640.98
2019-02-02T06:58:15.518Z,647.80
2019-02-02T07:00:45.125Z,643.40
2019-02-02T07:03:14.817Z,640.85
2019-02-02T07:05:44.623Z,638.30
2019-02-02T07:08:14.367Z,652.02
2019-02-02T07:10:44.041Z,643.05
2019-02-02T07:13:13.787Z,643.37
2019-02-02T07:15:43.460Z,632.67
2019-02-02T07:18:13.126Z,639.05
2019-02-02T07:20:42.805Z,645.08
2019-02-02T07:23:12.529Z,638.57
2019-02-02T07:25:42.279Z,619.42
2019-02-02T07:28:12.005Z,618.93
2019-02-02T07:30:41.703Z,622.87
2019-02-02T07:33:11.450Z,621.87
2019-02-02T07:35:41.160Z,617.77
2019-02-02T07:38:11.046Z,623.13
2019-02-02T07:40:40.890Z,605.52
2019-02-02T07:43:10.570Z,610.92
2019-02-02T07:45:40.399Z,612.80
2019-02-02T07:48:11.335Z,616.62
2019-02-02T07:50:41.155Z,618.60
2019-02-02T07:53:11.022Z,610.17
2019-02-02T07:55:40.638Z,609.47
2019-02-02T07:58:10.407Z,617.77
2019-02-02T08:00:41.748Z,607.62
2019-02-02T08:03:12.357Z,616.58
2019-02-02T08:05:42.215Z,606.70
2019-02-02T08:08:11.894Z,609.55
2019-02-02T08:10:41.770Z,602.75
2019-02-02T08:13:11.564Z,606.80
2019-02-02T08:15:41.346Z,599.50
2019-02-02T08:18:11.094Z,608.05
2019-02-02T08:20:40.765Z,598.75
2019-02-02T08:23:10.585Z,609.75
2019-02-02T08:25:40.359Z,603.60
2019-02-02T08:28:10.244Z,615.27
2019-02-02T08:30:51.680Z,611.35
2019-02-02T08:33:11.534Z,605.83
2019-02-02T08:35:42.483Z,612.00
2019-02-02T08:38:12.376Z,611.07
2019-02-02T08:40:42.204Z,611.55
2019-02-02T08:43:12.047Z,607.27
2019-02-02T08:45:41.815Z,604.90
2019-02-02T08:48:12.484Z,602.42
2019-02-02T08:50:42.151Z,597.83
2019-02-02T08:53:11.990Z,600.80
2019-02-02T08:55:41.883Z,604.23
2019-02-02T08:58:11.762Z,614.97
2019-02-02T09:00:42.458Z,614.25
2019-02-02T09:03:12.219Z,600.72
2019-02-02T09:05:42.127Z,613.87
2019-02-02T09:08:12.019Z,602.42
2019-02-02T09:10:42.797Z,608.62
2019-02-02T09:13:12.599Z,605.00
2019-02-02T09:15:42.232Z,602.25
2019-02-02T09:18:11.901Z,608.17
2019-02-02T09:20:41.671Z,600.33
2019-02-02T09:23:11.415Z,596.98
2019-02-02T09:25:41.183Z,604.53
2019-02-02T09:28:10.829Z,593.17
2019-02-02T09:30:40.603Z,592.17
2019-02-02T09:33:10.272Z,590.83
2019-02-02T09:35:39.970Z,595.35
2019-02-02T09:38:12.043Z,597.60
2019-02-02T09:40:41.139Z,600.15
2019-02-02T09:43:11.916Z,594.85
2019-02-02T09:45:41.776Z,604.48
2019-02-02T09:48:11.501Z,603.58
2019-02-02T09:50:41.185Z,601.80
2019-02-02T09:53:10.859Z,604.87
2019-02-02T09:55:41.543Z,594.37
2019-02-02T09:58:12.289Z,592.42
2019-02-02T10:00:42.054Z,594.73
2019-02-02T10:03:12.791Z,598.47
2019-02-02T10:05:44.235Z,598.17
2019-02-02T10:08:14.200Z,597.75
2019-02-02T10:10:44.083Z,614.67
2019-02-02T10:13:13.784Z,607.75
2019-02-02T10:15:43.585Z,595.92
2019-02-02T10:18:13.360Z,610.50
2019-02-02T10:20:43.041Z,605.58
2019-02-02T10:23:12.821Z,607.30
2019-02-02T10:25:42.745Z,612.33
2019-02-02T10:28:14.226Z,609.03
2019-02-02T10:30:45.697Z,611.88
2019-02-02T10:33:16.386Z,609.35
2019-02-02T10:35:46.240Z,606.30
2019-02-02T10:38:15.982Z,616.27
2019-02-02T10:40:45.793Z,616.53
2019-02-02T10:43:16.035Z,616.08
2019-02-02T10:45:45.981Z,610.52
2019-02-02T10:48:15.715Z,622.70
2019-02-02T10:50:45.524Z,623.88
2019-02-02T10:53:15.203Z,650.37
2019-02-02T10:55:45.144Z,655.63
2019-02-02T10:58:15.037Z,673.70
2019-02-02T11:00:44.837Z,683.33
2019-02-02T11:03:14.489Z,683.87
2019-02-02T11:05:44.396Z,679.55
2019-02-02T11:08:16.184Z,680.20
2019-02-02T11:10:47.115Z,676.33
2019-02-02T11:13:16.944Z,682.90
2019-02-02T11:15:47.081Z,671.77
2019-02-02T11:18:16.942Z,685.52
2019-02-02T11:20:46.754Z,691.92
2019-02-02T11:23:16.472Z,708.90
2019-02-02T11:25:46.399Z,716.35
2019-02-02T11:28:16.371Z,733.92
2019-02-02T11:30:46.259Z,738.10
2019-02-02T11:33:15.962Z,733.27
2019-02-02T11:35:46.316Z,735.95
2019-02-02T11:38:16.178Z,742.27
2019-02-02T11:40:46.028Z,732.67
2019-02-02T11:43:16.507Z,722.33
2019-02-02T11:45:46.444Z,705.87
2019-02-02T11:48:16.187Z,706.75
2019-02-02T11:50:45.968Z,683.62
2019-02-02T11:53:16.076Z,673.10
2019-02-02T11:55:45.852Z,668.87
2019-02-02T11:58:15.612Z,667.27
2019-02-02T12:00:45.421Z,656.70
2019-02-02T12:03:15.024Z,665.33
2019-02-02T12:05:44.748Z,662.37
2019-02-02T12:08:16.056Z,654.97
2019-02-02T12:10:45.905Z,677.67
2019-02-02T12:13:15.646Z,662.90
2019-02-02T12:15:46.414Z,663.83
2019-02-02T12:18:16.202Z,658.53
2019-02-02T12:20:46.060Z,662.40
2019-02-02T12:23:15.823Z,665.95
2019-02-02T12:25:46.632Z,676.15
2019-02-02T12:28:16.350Z,678.15
2019-02-02T12:30:46.128Z,686.07
2019-02-02T12:33:15.790Z,688.27
2019-02-02T12:35:45.654Z,695.15
2019-02-02T12:38:15.480Z,700.58
2019-02-02T12:40:45.095Z,711.98
2019-02-02T12:43:14.927Z,711.12
2019-02-02T12:45:47.130Z,704.10
2019-02-02T12:48:16.875Z,703.75
2019-02-02T12:50:47.544Z,703.95
2019-02-02T12:53:17.328Z,701.58
2019-02-02T12:55:47.052Z,710.75
2019-02-02T12:58:16.862Z,719.90
2019-02-02T13:00:46.557Z,726.20
2019-02-02T13:03:17.799Z,730.98
2019-02-02T13:05:47.467Z,731.23
2019-02-02T13:08:17.239Z,738.58
2019-02-02T13:10:47.075Z,745.33
2019-02-02T13:13:16.948Z,746.07
2019-02-02T13:15:46.651Z,743.45
2019-02-02T13:18:16.327Z,749.75
2019-02-02T13:20:46.015Z,748.90
2019-02-02T13:23:15.773Z,761.60
2019-02-02T13:25:46.466Z,765.40
2019-02-02T13:28:16.181Z,754.40
2019-02-02T13:30:45.824Z,750.53
2019-02-02T13:33:15.518Z,742.27
2019-02-02T13:35:45.268Z,737.77
2019-02-02T13:38:15.032Z,741.95
2019-02-02T13:40:44.722Z,739.20
2019-02-02T13:43:14.452Z,735.80
2019-02-02T13:45:44.188Z,733.02
2019-02-02T13:48:14.945Z,728.52
2019-02-02T13:50:44.806Z,729.35
2019-02-02T13:53:14.635Z,736.88
2019-02-02T13:55:44.428Z,734.27
2019-02-02T13:58:14.115Z,736.28
2019-02-02T14:00:43.903Z,729.95
2019-02-02T14:03:13.530Z,746.22
2019-02-02T14:05:44.327Z,750.85
2019-02-02T14:08:14.021Z,747.95
2019-02-02T14:10:43.770Z,745.90
2019-02-02T14:13:13.458Z,751.87
2019-02-02T14:15:43.213Z,762.85
2019-02-02T14:18:13.060Z,766.60
2019-02-02T14:20:42.862Z,765.47
2019-02-02T14:23:12.760Z,764.17
2019-02-02T14:25:42.567Z,762.72
2019-02-02T14:28:27.577Z,767.83
2019-02-02T14:30:46.967Z,755.42
2019-02-02T14:33:16.748Z,748.85
2019-02-02T14:35:46.582Z,745.12
2019-02-02T14:38:16.470Z,746.22
2019-02-02T14:40:46.191Z,743.35
2019-02-02T14:43:15.870Z,744.50
2019-02-02T14:45:45.615Z,741.95
2019-02-02T14:48:15.220Z,751.33
2019-02-02T14:50:45.963Z,748.97
2019-02-02T14:53:16.662Z,740.83
2019-02-02T14:55:46.496Z,749.02
2019-02-02T14:58:16.232Z,742.95
2019-02-02T15:00:46.080Z,741.92
2019-02-02T15:03:25.661Z,741.20
2019-02-02T15:05:47.377Z,749.23
2019-02-02T15:08:16.975Z,745.73
2019-02-02T15:10:46.744Z,738.05
2019-02-02T15:13:16.503Z,735.87
2019-02-02T15:15:46.323Z,740.62
2019-02-02T15:18:16.124Z,720.33
2019-02-02T15:20:45.847Z,723.05
2019-02-02T15:23:15.667Z,729.67
2019-02-02T15:25:45.445Z,736.85
2019-02-02T15:28:15.146Z,724.65
2019-02-02T15:30:44.868Z,718.95
2019-02-02T15:33:14.472Z,716.98
2019-02-02T15:35:44.156Z,707.80
2019-02-02T15:38:13.866Z,704.08
2019-02-02T15:40:43.533Z,703.80
2019-02-02T15:43:13.318Z,706.65
2019-02-02T15:45:42.979Z,699.40
2019-02-02T15:48:13.857Z,706.75
2019-02-02T15:50:43.453Z,694.55
2019-02-02T15:53:13.142Z,694.50
2019-02-02T15:55:42.756Z,680.35
2019-02-02T15:58:13.537Z,681.37
2019-02-02T16:00:43.291Z,673.83
2019-02-02T16:03:13.046Z,677.00
2019-02-02T16:05:42.708Z,655.20
2019-02-02T16:08:12.503Z,672.10
2019-02-02T16:10:43.239Z,668.65
2019-02-02T16:13:13.080Z,651.20
2019-02-02T16:15:42.864Z,651.22
2019-02-02T16:18:12.624Z,647.00
2019-02-02T16:20:45.239Z,642.90
2019-02-02T16:23:15.100Z,639.30
2019-02-02T16:25:45.086Z,638.80
2019-02-02T16:28:16.093Z,636.47
2019-02-02T16:30:45.748Z,632.15
2019-02-02T16:33:15.450Z,629.30
2019-02-02T16:35:45.166Z,621.25
2019-02-02T16:38:14.900Z,621.83
2019-02-02T16:40:44.579Z,631.92
2019-02-02T16:43:14.350Z,629.60
2019-02-02T16:45:44.115Z,634.22
2019-02-02T16:48:14.105Z,638.15
2019-02-02T16:50:43.841Z,655.55
2019-02-02T16:53:13.536Z,634.77
2019-02-02T16:55:44.143Z,623.05
2019-02-02T16:58:13.964Z,630.55
2019-02-02T17:00:43.648Z,639.48
2019-02-02T17:03:13.270Z,660.25
2019-02-02T17:05:43.123Z,653.58
2019-02-02T17:08:13.812Z,657.92
2019-02-02T17:10:43.465Z,669.33
2019-02-02T17:13:13.138Z,655.10
2019-02-02T17:15:42.886Z,646.67
2019-02-02T17:18:12.490Z,655.87
2019-02-02T17:20:43.137Z,645.75
2019-02-02T17:23:12.957Z,655.42
2019-02-02T17:25:42.703Z,651.55
2019-02-02T17:28:12.557Z,646.55
2019-02-02T17:30:42.327Z,651.20
2019-02-02T17:33:13.736Z,642.25
2019-02-02T17:35:44.445Z,644.28
2019-02-02T17:38:15.071Z,659.00
2019-02-02T17:40:44.898Z,641.25
2019-02-02T17:43:14.579Z,647.40
2019-02-02T17:45:44.337Z,636.75
2019-02-02T17:48:13.945Z,631.67
2019-02-02T17:50:43.733Z,624.45
2019-02-02T17:53:13.882Z,622.02
2019-02-02T17:55:43.724Z,631.80
2019-02-02T17:58:13.635Z,622.87
2019-02-02T18:00:50.840Z,624.48
2019-02-02T18:03:20.579Z,623.52
2019-02-02T18:05:50.396Z,652.40
2019-02-02T18:08:20.335Z,646.85
2019-02-02T18:10:50.121Z,636.55
2019-02-02T18:13:19.810Z,633.75
2019-02-02T18:15:49.598Z,660.77
2019-02-02T18:18:19.270Z,633.60
2019-02-02T18:20:49.089Z,631.30
2019-02-02T18:23:18.820Z,618.08
2019-02-02T18:25:48.686Z,636.12
2019-02-02T18:28:18.628Z,618.65
2019-02-02T18:30:48.370Z,628.90
2019-02-02T18:33:20.271Z,616.20
2019-02-02T18:35:50.150Z,616.45
2019-02-02T18:38:19.814Z,634.85
2019-02-02T18:40:49.517Z,627.47
2019-02-02T18:43:20.222Z,627.23
2019-02-02T18:45:50.025Z,625.65
2019-02-02T18:48:19.771Z,632.95
2019-02-02T18:50:49.459Z,628.75
2019-02-02T18:53:19.765Z,639.80
2019-02-02T18:55:55.427Z,634.27
2019-02-02T18:58:25.208Z,627.28
2019-02-02T19:00:55.046Z,630.77
2019-02-02T19:03:24.651Z,637.70
2019-02-02T19:05:54.576Z,639.23
2019-02-02T19:08:24.381Z,636.50
2019-02-02T19:10:55.132Z,645.90
2019-02-02T19:13:25.141Z,625.35
2019-02-02T19:15:54.954Z,622.58
2019-02-02T19:18:25.044Z,619.55
2019-02-02T19:20:54.804Z,624.05
2019-02-02T19:23:25.643Z,617.92
2019-02-02T19:25:55.514Z,624.10
2019-02-02T19:28:28.377Z,622.80
2019-02-02T19:30:56.807Z,631.40
2019-02-02T19:33:26.425Z,624.30
2019-02-02T19:35:56.183Z,632.50
2019-02-02T19:38:26.008Z,620.57
2019-02-02T19:40:55.795Z,625.20
2019-02-02T19:43:25.454Z,618.27
2019-02-02T19:45:56.115Z,624.65
2019-02-02T19:48:25.905Z,622.17
2019-02-02T19:50:55.667Z,635.13
2019-02-02T19:53:25.467Z,623.10
2019-02-02T19:55:55.296Z,626.73
2019-02-02T19:58:25.935Z,619.77
2019-02-02T20:00:55.635Z,622.92
2019-02-02T20:03:25.239Z,615.62
2019-02-02T20:05:55.103Z,620.92
2019-02-02T20:08:24.696Z,608.20
2019-02-02T20:10:54.376Z,633.05
2019-02-02T20:13:24.180Z,619.95
2019-02-02T20:15:53.990Z,611.73
2019-02-02T20:18:25.114Z,600.85
2019-02-02T20:20:54.950Z,595.88
2019-02-02T20:23:24.857Z,591.77
2019-02-02T20:25:54.483Z,600.00
2019-02-02T20:28:24.328Z,599.00
2019-02-02T20:30:54.336Z,599.88
2019-02-02T20:33:23.996Z,598.83
2019-02-02T20:35:53.728Z,600.60
2019-02-02T20:38:24.362Z,597.75
2019-02-02T20:40:54.358Z,590.12
2019-02-02T20:43:24.095Z,594.55
2019-02-02T20:45:53.886Z,609.87
2019-02-02T20:48:23.695Z,613.65
2019-02-02T20:50:53.516Z,616.62
2019-02-02T20:53:23.333Z,629.65
2019-02-02T20:55:53.064Z,611.83
2019-02-02T20:58:22.726Z,620.17
2019-02-02T21:00:52.423Z,609.60
2019-02-02T21:03:22.251Z,613.20
2019-02-02T21:05:52.838Z,610.40
2019-02-02T21:08:22.574Z,606.10
2019-02-02T21:10:52.398Z,596.63
2019-02-02T21:13:22.126Z,607.60
2019-02-02T21:15:52.826Z,602.20
2019-02-02T21:18:22.441Z,600.77
2019-02-02T21:20:52.251Z,600.42
2019-02-02T21:23:22.161Z,601.02
2019-02-02T21:25:51.975Z,607.40
2019-02-02T21:28:21.661Z,592.65
2019-02-02T21:30:52.533Z,596.70
2019-02-02T21:33:22.274Z,601.20
2019-02-02T21:36:03.206Z,588.10
2019-02-02T21:38:23.508Z,599.10
2019-02-02T21:40:53.566Z,591.40
2019-02-02T21:43:23.497Z,592.33
2019-02-02T21:45:53.607Z,595.57
2019-02-02T21:48:23.362Z,593.87
2019-02-02T21:50:53.151Z,593.58
2019-02-02T21:53:23.864Z,586.75
2019-02-02T21:55:53.891Z,583.40
2019-02-02T21:58:24.620Z,594.47
2019-02-02T22:00:55.232Z,573.67
2019-02-02T22:03:25.901Z,582.45
2019-02-02T22:05:55.787Z,577.13
2019-02-02T22:08:25.751Z,566.10
2019-02-02T22:10:55.572Z,566.67
2019-02-02T22:13:25.327Z,561.42
2019-02-02T22:15:55.084Z,543.97
2019-02-02T22:18:24.729Z,561.67
2019-02-02T22:20:54.869Z,556.13
2019-02-02T22:23:24.626Z,560.33
2019-02-02T22:25:54.367Z,564.25
2019-02-02T22:28:24.135Z,572.77
2019-02-02T22:30:53.801Z,564.87
2019-02-02T22:33:23.854Z,562.13
2019-02-02T22:35:53.446Z,563.58
2019-02-02T22:38:23.224Z,569.50
2019-02-02T22:40:53.026Z,564.70
2019-02-02T22:43:22.739Z,574.60
2019-02-02T22:45:53.435Z,570.52
2019-02-02T22:48:23.295Z,575.77
2019-02-02T22:50:53.921Z,568.35
2019-02-02T22:53:23.703Z,583.50
2019-02-02T22:55:53.428Z,667.63
2019-02-02T22:58:24.145Z,660.00
2019-02-02T23:01:01.226Z,669.35
2019-02-02T23:03:37.069Z,659.37
2019-02-02T23:06:38.840Z,662.90
2019-02-02T23:09:30.643Z,667.95
2019-02-02T23:12:03.418Z,651.70
2019-02-02T23:15:03.564Z,642.75
2019-02-02T23:17:33.325Z,659.03
2019-02-02T23:20:03.535Z,659.23
2019-02-02T23:22:33.329Z,659.52
2019-02-02T23:25:03.089Z,643.95
2019-02-02T23:27:32.841Z,641.08
2019-02-02T23:30:02.802Z,656.02
2019-02-02T23:32:32.976Z,640.20
2019-02-02T23:35:02.858Z,636.08
2019-02-02T23:37:32.594Z,666.73
2019-02-02T23:40:02.372Z,657.52
2019-02-02T23:42:32.054Z,641.48
2019-02-02T23:45:01.738Z,640.33
2019-02-02T23:47:32.254Z,638.08
2019-02-02T23:50:02.090Z,650.02
2019-02-02T23:52:31.842Z,650.97
2019-02-02T23:55:01.546Z,644.58
2019-02-02T23:57:31.208Z,644.23
